Terminal Aerodrome Forecast
Issued by NWS Wilmington, OH

Current Version | Previous Version | Graphics & Text | Print | Product List | Glossary On
Versions: 1 2 3 4 5 6 7 8 9 10 11 12 13
000
FTUS41 KILN 251132
TAFDAY
TAF
KDAY 251132Z 2512/2612 19007KT P6SM VCSH BKN070
     FM251700 20011KT P6SM SCT070
     FM260100 18007KT P6SM BKN150=

USA.gov is the U.S. government's official web portal to all federal, state and local government web resources and services.